Time;durP1;ratioP1;P1;durP2;ratioP2;P2;SDS_P1;SDS_P2;PMS_P1;PMS_P2;Temp;Humidity;BMP_temperature;BMP_pressure;BME280_temperature;BME280_humidity;BME280_pressure;Samples;Min_cycle;Max_cycle;Signal;HPM_P1;HPM_P2
2024/01/10 00:01:26;;;;;;;9.80;6.30;;;;;;;-6.46;100.00;101919.06;105663;1267;60544;-74
2024/01/10 00:03:54;;;;;;;23.70;12.30;;;;;;;-6.40;100.00;101905.60;105728;1258;60434;-73
2024/01/10 00:06:23;;;;;;;11.40;8.90;;;;;;;-6.34;100.00;101903.77;105624;1258;73012;-75
2024/01/10 00:08:51;;;;;;;10.50;6.10;;;;;;;-6.28;100.00;101896.79;105658;1260;63880;-73
2024/01/10 00:11:17;;;;;;;11.90;7.70;;;;;;;-6.23;100.00;101897.80;105535;1259;72617;-75
2024/01/10 00:13:44;;;;;;;10.90;7.30;;;;;;;-6.18;100.00;101895.38;105675;1258;60503;-73
2024/01/10 00:16:13;;;;;;;11.60;7.70;;;;;;;-6.10;100.00;101891.02;105708;1257;60313;-73
2024/01/10 00:18:40;;;;;;;23.20;9.70;;;;;;;-6.05;100.00;101891.52;105752;1258;73843;-73
2024/01/10 00:21:08;;;;;;;8.60;6.60;;;;;;;-6.02;100.00;101881.53;105712;1260;63542;-74
2024/01/10 00:23:35;;;;;;;16.90;8.70;;;;;;;-6.03;100.00;101880.33;105723;1260;72638;-75
2024/01/10 00:26:02;;;;;;;8.80;5.50;;;;;;;-6.08;100.00;101878.64;105640;1258;60976;-74
2024/01/10 00:28:29;;;;;;;8.00;6.20;;;;;;;-6.10;100.00;101875.02;105749;1254;60508;-74
2024/01/10 00:30:56;;;;;;;15.80;8.50;;;;;;;-6.07;100.00;101875.64;105634;1260;73945;-73
2024/01/10 00:33:23;;;;;;;16.80;9.00;;;;;;;-5.97;100.00;101867.89;105611;1259;63739;-73
2024/01/10 00:35:50;;;;;;;10.90;6.00;;;;;;;-5.88;100.00;101859.77;105674;1258;72650;-73
2024/01/10 00:38:17;;;;;;;10.30;6.10;;;;;;;-5.80;100.00;101852.15;105650;1258;61044;-74
2024/01/10 00:40:44;;;;;;;12.30;7.70;;;;;;;-5.71;100.00;101845.93;105669;1255;60594;-73
2024/01/10 00:43:11;;;;;;;15.90;10.90;;;;;;;-5.63;100.00;101838.80;105635;1258;73688;-73
2024/01/10 00:45:38;;;;;;;14.70;10.60;;;;;;;-5.56;100.00;101840.50;105627;1257;64024;-75
2024/01/10 00:48:05;;;;;;;21.20;12.20;;;;;;;-5.50;100.00;101838.80;105697;1254;72644;-75
2024/01/10 00:50:32;;;;;;;19.50;12.60;;;;;;;-5.49;100.00;101837.96;105751;1259;61136;-73
2024/01/10 00:52:59;;;;;;;22.30;12.40;;;;;;;-5.48;100.00;101834.77;105816;1259;60456;-75
2024/01/10 00:55:26;;;;;;;19.80;13.90;;;;;;;-5.43;100.00;101836.42;105788;1260;73995;-76
2024/01/10 00:57:53;;;;;;;21.20;11.90;;;;;;;-5.34;100.00;101834.76;105771;1254;63249;-73
2024/01/10 01:00:20;;;;;;;22.60;13.40;;;;;;;-5.27;100.00;101828.46;105755;1257;71156;-74
2024/01/10 01:02:47;;;;;;;22.50;11.70;;;;;;;-5.22;100.00;101823.30;105813;1257;61087;-75
2024/01/10 01:05:14;;;;;;;32.00;13.90;;;;;;;-5.22;100.00;101824.51;105783;1254;60568;-74
2024/01/10 01:07:41;;;;;;;25.80;12.10;;;;;;;-5.19;100.00;101828.64;107075;1254;73842;-74
2024/01/10 01:10:08;;;;;;;20.50;12.90;;;;;;;-5.14;100.00;101820.76;106828;1258;62265;-75
2024/01/10 01:12:36;;;;;;;21.20;13.20;;;;;;;-5.07;100.00;101815.98;106098;1254;71227;-76
2024/01/10 01:15:04;;;;;;;24.60;11.30;;;;;;;-5.01;100.00;101816.97;106504;1259;61240;-74
2024/01/10 01:17:31;;;;;;;24.50;15.20;;;;;;;-4.95;100.00;101808.06;105675;1254;60464;-76
2024/01/10 01:19:59;;;;;;;16.60;9.40;;;;;;;-4.90;100.00;101797.59;105780;1257;73914;-76
2024/01/10 01:22:27;;;;;;;20.80;10.70;;;;;;;-4.92;100.00;101790.40;105758;1258;63909;-76
2024/01/10 01:24:54;;;;;;;19.40;11.80;;;;;;;-4.91;100.00;101787.02;105722;1255;72865;-75
2024/01/10 01:27:23;;;;;;;14.50;8.90;;;;;;;-4.90;100.00;101782.77;105659;1257;61088;-74
2024/01/10 01:29:50;;;;;;;13.20;7.70;;;;;;;-4.86;100.00;101779.45;105506;1254;60466;-75
2024/01/10 01:32:16;;;;;;;15.00;10.10;;;;;;;-4.80;100.00;101776.85;105619;1254;73799;-75
2024/01/10 01:34:43;;;;;;;15.60;9.80;;;;;;;-4.75;100.00;101774.56;105558;1257;63969;-75
2024/01/10 01:37:11;;;;;;;19.10;11.80;;;;;;;-4.71;100.00;101772.44;105582;1257;72504;-75
2024/01/10 01:39:39;;;;;;;15.20;7.90;;;;;;;-4.68;100.00;101762.44;105606;1257;61611;-75
2024/01/10 01:42:06;;;;;;;9.90;6.60;;;;;;;-4.69;100.00;101762.23;105698;1254;60486;-75
2024/01/10 01:44:33;;;;;;;13.20;7.80;;;;;;;-4.75;100.00;101756.50;105702;1257;72752;-74
2024/01/10 01:46:59;;;;;;;10.50;7.00;;;;;;;-4.77;100.00;101746.23;105496;1260;238093;-76
2024/01/10 01:52:17;;;;;;;9.90;7.30;;;;;;;-4.76;100.00;101740.77;102535;1292;600797;-74
2024/01/10 01:54:45;;;;;;;12.80;8.10;;;;;;;-4.75;100.00;101733.28;104956;1269;59870;-75
2024/01/10 01:57:12;;;;;;;13.50;7.50;;;;;;;-4.76;100.00;101729.34;105126;1269;59672;-75
2024/01/10 01:59:39;;;;;;;10.20;8.10;;;;;;;-4.76;100.00;101729.51;105247;1266;72281;-75
2024/01/10 02:02:06;;;;;;;14.70;9.00;;;;;;;-4.78;100.00;101722.66;105152;1271;63880;-76
2024/01/10 02:04:33;;;;;;;13.00;8.60;;;;;;;-4.83;100.00;101717.96;104761;1272;267821;-76
2024/01/10 02:07:01;;;;;;;14.60;8.60;;;;;;;-4.86;100.00;101712.08;105267;1266;59244;-75
2024/01/10 02:09:28;;;;;;;12.80;8.60;;;;;;;-4.91;100.00;101706.71;105240;1265;60424;-74
2024/01/10 02:11:55;;;;;;;14.70;9.30;;;;;;;-4.91;100.00;101696.11;105185;1265;71649;-75
2024/01/10 02:14:22;;;;;;;18.50;9.80;;;;;;;-4.93;100.00;101690.96;105211;1266;63739;-74
2024/01/10 02:16:49;;;;;;;12.90;10.10;;;;;;;-4.97;100.00;101681.83;104878;1271;72673;-73
2024/01/10 02:19:18;;;;;;;16.10;8.60;;;;;;;-5.02;100.00;101677.64;105199;1265;61883;-76
2024/01/10 02:21:45;;;;;;;15.20;10.10;;;;;;;-5.06;100.00;101680.81;105243;1266;60535;-73
2024/01/10 02:24:12;;;;;;;16.60;9.20;;;;;;;-5.07;100.00;101681.30;105146;1267;72985;-74
2024/01/10 02:26:39;;;;;;;16.90;10.80;;;;;;;-5.03;100.00;101675.23;105851;1256;62468;-75
2024/01/10 02:29:07;;;;;;;15.80;10.40;;;;;;;-5.02;100.00;101670.16;105859;1255;73851;-75
2024/01/10 02:31:34;;;;;;;17.60;10.30;;;;;;;-4.96;100.00;101672.48;105975;1251;60998;-76
2024/01/10 02:34:02;;;;;;;20.00;11.80;;;;;;;-4.89;100.00;101666.66;105893;1256;59542;-74
2024/01/10 02:36:30;;;;;;;17.10;11.00;;;;;;;-4.77;100.00;101661.95;105955;1252;72898;-76
2024/01/10 02:38:57;;;;;;;17.40;10.30;;;;;;;-4.67;100.00;101657.88;106063;1256;63866;-75
2024/01/10 02:41:24;;;;;;;19.10;10.60;;;;;;;-4.60;100.00;101649.14;105865;1251;72756;-76
2024/01/10 02:43:51;;;;;;;22.00;12.20;;;;;;;-4.54;100.00;101643.62;105770;1257;60476;-73
2024/01/10 02:46:19;;;;;;;20.40;11.30;;;;;;;-4.54;100.00;101634.92;105941;1256;60157;-75
2024/01/10 02:48:46;;;;;;;18.10;10.50;;;;;;;-4.56;100.00;101628.22;105910;1251;72985;-75
2024/01/10 02:51:13;;;;;;;22.20;11.80;;;;;;;-4.58;100.00;101621.52;105981;1257;62618;-74
2024/01/10 02:53:40;;;;;;;16.80;11.20;;;;;;;-4.61;100.00;101619.10;105935;1251;71671;-75
2024/01/10 02:56:07;;;;;;;21.30;10.90;;;;;;;-4.61;100.00;101604.09;105964;1254;61243;-75
2024/01/10 02:58:34;;;;;;;22.30;13.00;;;;;;;-4.65;100.00;101593.27;105998;1256;59561;-74
2024/01/10 03:01:01;;;;;;;24.40;14.00;;;;;;;-4.64;100.00;101586.29;108123;1251;71555;-73
2024/01/10 03:03:29;;;;;;;20.50;11.90;;;;;;;-4.61;100.00;101578.17;108118;1251;62513;-73
2024/01/10 03:05:55;;;;;;;23.40;12.60;;;;;;;-4.53;100.00;101572.14;109238;1251;71340;-74
2024/01/10 03:08:22;;;;;;;27.70;13.70;;;;;;;-4.45;100.00;101569.39;108909;1251;59416;-72
2024/01/10 03:10:50;;;;;;;21.50;14.50;;;;;;;-4.40;100.00;101567.94;105920;1251;59817;-75
2024/01/10 03:13:17;;;;;;;24.10;13.10;;;;;;;-4.36;100.00;101566.47;105837;1255;73584;-74
2024/01/10 03:15:44;;;;;;;24.40;14.60;;;;;;;-4.35;100.00;101567.00;105886;1255;63812;-75
2024/01/10 03:18:11;;;;;;;23.90;13.70;;;;;;;-4.36;100.00;101557.93;105695;1251;72715;-75
2024/01/10 03:20:38;;;;;;;25.80;14.50;;;;;;;-4.35;100.00;101550.27;105781;1256;63383;-75
2024/01/10 03:23:05;;;;;;;22.10;12.60;;;;;;;-4.31;100.00;101536.84;105718;1256;60249;-74
2024/01/10 03:25:32;;;;;;;19.10;12.00;;;;;;;-4.27;100.00;101533.48;105974;1254;73121;-73
2024/01/10 03:27:59;;;;;;;23.00;13.00;;;;;;;-4.22;100.00;101532.73;106001;1257;63737;-74
2024/01/10 03:30:26;;;;;;;22.30;11.90;;;;;;;-4.15;100.00;101522.91;105934;1254;72630;-74
2024/01/10 03:32:54;;;;;;;19.10;10.70;;;;;;;-4.11;100.00;101527.59;105929;1254;61120;-75
2024/01/10 03:35:20;;;;;;;16.90;11.50;;;;;;;-4.07;100.00;101531.74;105898;1254;60287;-75
2024/01/10 03:37:47;;;;;;;21.80;12.00;;;;;;;-4.04;100.00;101533.66;105871;1251;71846;-75
2024/01/10 03:40:14;;;;;;;20.30;13.10;;;;;;;-4.01;100.00;101536.11;105937;1251;62527;-74
2024/01/10 03:42:42;;;;;;;24.90;12.80;;;;;;;-3.98;100.00;101533.77;105971;1254;72628;-74
2024/01/10 03:45:10;;;;;;;32.00;15.60;;;;;;;-4.00;100.00;101538.34;106045;1254;60530;-76
2024/01/10 03:47:37;;;;;;;29.80;15.50;;;;;;;-4.02;100.00;101536.60;106045;1251;60308;-73
2024/01/10 03:50:05;;;;;;;27.50;15.50;;;;;;;-4.03;100.00;101534.20;106048;1251;71694;-76
2024/01/10 03:52:32;;;;;;;27.50;15.20;;;;;;;-4.02;100.00;101520.73;106029;1260;62400;-74
2024/01/10 03:54:59;;;;;;;28.90;14.20;;;;;;;-3.98;100.00;101525.38;105896;1251;72755;-74
2024/01/10 03:57:26;;;;;;;27.40;14.40;;;;;;;-3.95;100.00;101529.36;105878;1251;60537;-74
2024/01/10 03:59:53;;;;;;;30.30;16.20;;;;;;;-3.92;100.00;101532.13;105864;1254;60361;-74
2024/01/10 04:02:20;;;;;;;26.20;14.90;;;;;;;-3.88;100.00;101527.92;105890;1254;73135;-75
2024/01/10 04:04:47;;;;;;;25.10;14.60;;;;;;;-3.83;100.00;101531.40;105900;1255;62431;-75
2024/01/10 04:07:14;;;;;;;25.30;13.30;;;;;;;-3.80;100.00;101535.20;105910;1254;71346;-75
2024/01/10 04:09:42;;;;;;;23.50;15.00;;;;;;;-3.76;100.00;101532.70;105900;1254;59663;-76
2024/01/10 04:12:09;;;;;;;30.00;17.20;;;;;;;-3.77;100.00;101537.47;105935;1251;60353;-74
2024/01/10 04:14:36;;;;;;;30.40;16.10;;;;;;;-3.74;100.00;101540.77;105908;1251;73039;-74
2024/01/10 04:17:04;;;;;;;30.80;17.50;;;;;;;-3.73;100.00;101533.75;105903;1251;62497;-75
2024/01/10 04:19:33;;;;;;;29.30;18.00;;;;;;;-3.72;100.00;101525.91;105949;1251;72706;-74
2024/01/10 04:22:00;;;;;;;30.30;17.40;;;;;;;-3.71;100.00;101525.41;106228;1254;60257;-73
2024/01/10 04:24:27;;;;;;;26.30;15.30;;;;;;;-3.71;100.00;101525.05;106152;1250;60194;-73
2024/01/10 04:26:54;;;;;;;32.50;16.70;;;;;;;-3.72;100.00;101525.58;106133;1252;71599;-75
2024/01/10 04:29:21;;;;;;;25.30;15.00;;;;;;;-3.71;100.00;101529.33;106107;1254;62294;-74
2024/01/10 04:31:49;;;;;;;23.70;14.80;;;;;;;-3.70;100.00;101530.04;105952;1254;72656;-73
2024/01/10 04:34:17;;;;;;;27.70;14.50;;;;;;;-3.68;100.00;101530.58;106002;1254;61162;-74
2024/01/10 04:36:45;;;;;;;25.20;14.30;;;;;;;-3.62;100.00;101527.06;106047;1254;60195;-74
2024/01/10 04:39:13;;;;;;;25.20;11.90;;;;;;;-3.54;100.00;101529.05;105909;1254;73103;-76
2024/01/10 04:41:40;;;;;;;17.30;10.70;;;;;;;-3.49;100.00;101522.79;105853;1255;63768;-75
2024/01/10 04:44:07;;;;;;;18.60;10.80;;;;;;;-3.47;100.00;101516.30;105836;1254;72673;-75
2024/01/10 04:46:33;;;;;;;15.30;9.50;;;;;;;-3.49;100.00;101508.42;105825;1254;59737;-76
2024/01/10 04:49:00;;;;;;;23.60;10.70;;;;;;;-3.53;100.00;101504.27;105891;1254;60194;-74
2024/01/10 04:51:28;;;;;;;15.60;10.00;;;;;;;-3.53;100.00;101496.75;105805;1251;73042;-77
2024/01/10 04:53:55;;;;;;;19.70;12.10;;;;;;;-3.51;100.00;101498.50;105941;1252;65471;-75
2024/01/10 04:56:23;;;;;;;15.10;9.50;;;;;;;-3.51;100.00;101497.30;105968;1251;72606;-75
2024/01/10 04:58:50;;;;;;;20.30;9.50;;;;;;;-3.53;100.00;101501.72;105902;1256;62081;-77
2024/01/10 05:01:18;;;;;;;19.80;8.20;;;;;;;-3.54;100.00;101499.14;105890;1254;59654;-77
2024/01/10 05:03:45;;;;;;;12.90;7.20;;;;;;;-3.50;100.00;101500.89;106028;1251;70875;-74
2024/01/10 05:06:12;;;;;;;9.00;5.50;;;;;;;-3.51;100.00;101505.52;105929;1256;62258;-73
2024/01/10 05:08:40;;;;;;;10.40;5.20;;;;;;;-3.50;100.00;101502.43;106129;1256;72600;-75
2024/01/10 05:11:07;;;;;;;9.30;4.80;;;;;;;-3.52;100.00;101495.05;105934;1254;60995;-76
2024/01/10 05:13:33;;;;;;;11.60;7.10;;;;;;;-3.54;100.00;101493.33;106035;1251;60320;-74
2024/01/10 05:16:00;;;;;;;9.10;5.70;;;;;;;-3.55;100.00;101498.45;105982;1254;73019;-73
2024/01/10 05:18:27;;;;;;;8.50;5.40;;;;;;;-3.54;100.00;101493.15;105870;1256;63972;-73
2024/01/10 05:20:54;;;;;;;7.40;4.70;;;;;;;-3.56;100.00;101496.38;106122;1250;72675;-72
2024/01/10 05:23:22;;;;;;;7.70;4.90;;;;;;;-3.57;100.00;101491.75;106285;1254;59733;-76
2024/01/10 05:25:49;;;;;;;6.90;4.50;;;;;;;-3.57;100.00;101496.89;105963;1251;60116;-75
2024/01/10 05:28:16;;;;;;;7.00;4.40;;;;;;;-3.58;100.00;101492.27;105880;1254;73105;-74
2024/01/10 05:30:44;;;;;;;5.30;3.80;;;;;;;-3.57;100.00;101492.96;105852;1254;64142;-75
2024/01/10 05:33:11;;;;;;;3.70;3.20;;;;;;;-3.51;100.00;101492.67;106008;1251;71543;-76
2024/01/10 05:35:38;;;;;;;4.70;4.00;;;;;;;-3.48;100.00;101492.05;106075;1257;61016;-74
2024/01/10 05:38:05;;;;;;;4.60;3.80;;;;;;;-3.48;100.00;101490.51;106013;1258;59766;-74
2024/01/10 05:40:32;;;;;;;3.90;3.00;;;;;;;-3.46;100.00;101485.39;105989;1254;73655;-73
2024/01/10 05:42:59;;;;;;;3.20;2.70;;;;;;;-3.42;100.00;101484.41;105965;1251;62323;-76
2024/01/10 05:45:26;;;;;;;4.60;3.80;;;;;;;-3.41;100.00;101493.31;105943;1256;71566;-74
2024/01/10 05:47:54;;;;;;;3.80;3.30;;;;;;;-3.39;100.00;101501.54;105855;1255;59740;-75
2024/01/10 05:50:21;;;;;;;5.00;3.90;;;;;;;-3.33;100.00;101507.60;105944;1254;60283;-76
2024/01/10 05:52:48;;;;;;;3.40;2.00;;;;;;;-3.30;100.00;101512.41;105926;1257;73078;-74
2024/01/10 05:55:17;;;;;;;4.60;2.20;;;;;;;-3.32;100.00;101512.05;105881;1254;63985;-74
2024/01/10 05:57:44;;;;;;;2.60;2.30;;;;;;;-3.36;100.00;101514.23;105912;1251;72801;-72
2024/01/10 06:00:16;;;;;;;3.90;3.30;;;;;;;-3.39;100.00;101506.67;105768;1251;61047;-76
2024/01/10 06:02:43;;;;;;;2.20;2.00;;;;;;;-3.41;100.00;101509.55;105814;1254;60354;-75
2024/01/10 06:05:11;;;;;;;2.10;1.90;;;;;;;-3.42;100.00;101506.64;105964;1251;73877;-76
2024/01/10 06:07:38;;;;;;;3.90;2.70;;;;;;;-3.39;100.00;101506.33;105993;1254;63751;-74
2024/01/10 06:10:06;;;;;;;3.70;2.70;;;;;;;-3.31;100.00;101498.38;105962;1254;73017;-75
2024/01/10 06:12:33;;;;;;;4.40;2.40;;;;;;;-3.26;100.00;101495.02;106014;1254;60432;-76
2024/01/10 06:15:01;;;;;;;5.30;3.00;;;;;;;-3.23;100.00;101493.68;105826;1251;60499;-75
2024/01/10 06:17:28;;;;;;;3.80;2.60;;;;;;;-3.23;100.00;101489.92;105888;1254;72796;-75
2024/01/10 06:19:59;;;;;;;5.40;2.60;;;;;;;-3.23;100.00;101493.34;105888;1254;63763;-74
2024/01/10 06:22:26;;;;;;;2.90;2.40;;;;;;;-3.22;100.00;101495.58;105838;1251;72781;-75
2024/01/10 06:24:56;;;;;;;4.30;2.90;;;;;;;-3.22;100.00;101495.75;106018;1254;60635;-76
2024/01/10 06:27:23;;;;;;;2.10;1.90;;;;;;;-3.20;100.00;101498.52;105940;1250;60647;-76
2024/01/10 06:29:51;;;;;;;2.70;2.20;;;;;;;-3.17;100.00;101490.52;105929;1251;73907;-75
2024/01/10 06:32:19;;;;;;;2.90;2.50;;;;;;;-3.16;100.00;101492.40;106024;1254;63862;-76
2024/01/10 06:34:46;;;;;;;3.80;2.30;;;;;;;-3.16;100.00;101494.09;105928;1251;72814;-75
2024/01/10 06:37:15;;;;;;;3.20;2.30;;;;;;;-3.15;100.00;101497.52;105959;1250;60536;-73
2024/01/10 06:39:43;;;;;;;3.20;2.30;;;;;;;-3.14;100.00;101497.86;105881;1254;60482;-74
2024/01/10 06:42:11;;;;;;;3.30;2.60;;;;;;;-3.16;100.00;101495.46;105991;1250;73843;-75
2024/01/10 06:44:39;;;;;;;2.30;2.00;;;;;;;-3.16;100.00;101493.59;106076;1251;63884;-76
2024/01/10 06:47:06;;;;;;;3.20;2.60;;;;;;;-3.15;100.00;101492.23;106030;1250;71797;-73
2024/01/10 06:49:33;;;;;;;3.40;2.80;;;;;;;-3.14;100.00;101495.15;106496;1254;61150;-74
2024/01/10 06:52:00;;;;;;;2.30;2.10;;;;;;;-3.12;100.00;101496.36;107781;1250;59281;-74
2024/01/10 06:54:27;;;;;;;2.30;2.10;;;;;;;-3.08;100.00;101498.11;107987;1250;71628;-73
2024/01/10 06:56:55;;;;;;;4.70;2.40;;;;;;;-3.05;100.00;101495.58;109435;1250;62635;-74
2024/01/10 06:59:22;;;;;;;3.10;2.30;;;;;;;-3.03;100.00;101498.16;108627;1251;71428;-76
2024/01/10 07:01:53;;;;;;;3.30;2.50;;;;;;;-3.01;100.00;101499.55;105945;1254;60440;-74
2024/01/10 07:04:22;;;;;;;3.00;2.30;;;;;;;-2.93;100.00;101499.13;105994;1254;60559;-74
2024/01/10 07:06:52;;;;;;;3.70;3.00;;;;;;;-2.86;100.00;101496.96;105928;1251;74035;-73
2024/01/10 07:09:21;;;;;;;4.60;3.50;;;;;;;-2.85;100.00;101494.23;105985;1251;61584;-73
2024/01/10 07:11:49;;;;;;;4.40;3.90;;;;;;;-2.85;100.00;101492.70;105928;1251;72561;-74
2024/01/10 07:14:16;;;;;;;5.20;3.90;;;;;;;-2.84;100.00;101493.73;105869;1254;60900;-74
2024/01/10 07:16:45;;;;;;;7.20;5.00;;;;;;;-2.86;100.00;101486.17;105912;1250;60556;-74
2024/01/10 07:19:13;;;;;;;7.60;5.30;;;;;;;-2.85;100.00;101486.70;105922;1254;72429;-73
2024/01/10 07:21:41;;;;;;;7.10;5.70;;;;;;;-2.78;100.00;101491.04;105883;1254;63623;-75
2024/01/10 07:24:09;;;;;;;9.30;5.90;;;;;;;-2.73;100.00;101491.27;105951;1254;71319;-75
2024/01/10 07:26:37;;;;;;;7.10;5.60;;;;;;;-2.67;100.00;101492.85;106039;1250;60581;-74
2024/01/10 07:29:08;;;;;;;8.50;6.80;;;;;;;-2.61;100.00;101488.11;105888;1251;60553;-75
2024/01/10 07:31:35;;;;;;;9.30;5.90;;;;;;;-2.59;100.00;101489.84;105904;1251;74289;-74
2024/01/10 07:34:04;;;;;;;8.70;6.10;;;;;;;-2.58;100.00;101492.76;105840;1254;63985;-74
2024/01/10 07:36:36;;;;;;;8.30;6.00;;;;;;;-2.55;100.00;101492.09;105868;1251;72692;-76
2024/01/10 07:39:05;;;;;;;9.80;6.10;;;;;;;-2.53;100.00;101489.55;105839;1250;61013;-76
2024/01/10 07:41:32;;;;;;;9.20;6.20;;;;;;;-2.51;100.00;101492.83;105911;1251;60553;-74
2024/01/10 07:44:00;;;;;;;10.80;6.70;;;;;;;-2.51;100.00;101486.48;105924;1254;73871;-75
2024/01/10 07:46:27;;;;;;;8.70;5.90;;;;;;;-2.51;100.00;101491.27;105815;1254;63931;-76
2024/01/10 07:48:54;;;;;;;7.80;5.60;;;;;;;-2.47;100.00;101486.33;105736;1257;72528;-75
2024/01/10 07:51:21;;;;;;;7.10;5.80;;;;;;;-2.40;100.00;101483.29;105883;1254;60580;-75
2024/01/10 07:53:48;;;;;;;7.50;5.20;;;;;;;-2.35;100.00;101485.91;105742;1250;60554;-75
2024/01/10 07:56:15;;;;;;;15.20;7.10;;;;;;;-2.33;100.00;101481.82;105908;1251;73605;-74
2024/01/10 07:58:42;;;;;;;11.10;6.60;;;;;;;-2.32;100.00;101478.05;105960;1251;65306;-74
2024/01/10 08:01:10;;;;;;;8.80;5.50;;;;;;;-2.32;100.00;101472.91;105962;1254;72923;-75
2024/01/10 08:03:37;;;;;;;12.00;7.00;;;;;;;-2.31;100.00;101472.41;105869;1254;60358;-75
2024/01/10 08:06:04;;;;;;;6.80;5.40;;;;;;;-2.30;100.00;101471.21;106152;1250;60384;-74
2024/01/10 08:08:38;;;;;;;9.30;5.70;;;;;;;-2.26;100.00;101466.45;105974;1254;74149;-74
2024/01/10 08:11:05;;;;;;;9.50;5.70;;;;;;;-2.28;100.00;101469.16;105942;1254;63939;-76
2024/01/10 08:13:36;;;;;;;7.90;5.70;;;;;;;-2.32;100.00;101478.05;106442;1254;72755;-73
2024/01/10 08:16:09;;;;;;;8.40;7.30;;;;;;;-2.32;100.00;101481.65;105824;1256;60440;-76
2024/01/10 08:18:42;;;;;;;11.40;6.80;;;;;;;-2.29;100.00;101488.01;105930;1250;60430;-75
2024/01/10 08:21:10;;;;;;;10.20;8.10;;;;;;;-2.29;100.00;101483.04;105783;1253;73253;-75
2024/01/10 08:23:40;;;;;;;10.60;8.00;;;;;;;-2.30;100.00;101483.04;105720;1251;62756;-74
2024/01/10 08:26:08;;;;;;;12.10;7.70;;;;;;;-2.33;100.00;101481.81;105898;1250;72446;-75
2024/01/10 08:28:34;;;;;;;9.40;6.70;;;;;;;-2.33;100.00;101486.44;105777;1254;60611;-76
2024/01/10 08:31:03;;;;;;;9.30;6.80;;;;;;;-2.30;100.00;101486.11;105810;1251;60437;-74
2024/01/10 08:33:35;;;;;;;9.40;6.60;;;;;;;-2.26;100.00;101485.97;105759;1251;73881;-74
2024/01/10 08:36:03;;;;;;;10.40;7.70;;;;;;;-2.22;100.00;101482.23;106393;1254;63108;-75
2024/01/10 08:38:35;;;;;;;9.90;6.90;;;;;;;-2.22;100.00;101482.92;105842;1250;73048;-74
2024/01/10 08:41:03;;;;;;;11.70;7.50;;;;;;;-2.22;100.00;101475.20;105985;1251;60523;-75
2024/01/10 08:43:30;;;;;;;9.40;7.50;;;;;;;-2.16;100.00;101470.80;105947;1251;60549;-75
2024/01/10 08:45:59;;;;;;;8.90;6.90;;;;;;;-2.08;100.00;101475.13;105844;1250;73860;-75
2024/01/10 08:48:29;;;;;;;11.20;9.60;;;;;;;-2.10;100.00;101469.12;106001;1251;62117;-74
2024/01/10 08:50:56;;;;;;;8.70;7.20;;;;;;;-2.11;100.00;101470.31;105957;1250;71527;-73
2024/01/10 08:53:24;;;;;;;8.50;6.60;;;;;;;-2.12;100.00;101470.64;107639;1250;62922;-73
2024/01/10 08:55:51;;;;;;;7.30;5.20;;;;;;;-2.10;100.00;101475.80;108921;1250;59534;-73
2024/01/10 08:58:18;;;;;;;8.20;6.30;;;;;;;-2.07;100.00;101479.23;107755;1250;72362;-75
2024/01/10 09:00:46;;;;;;;6.60;4.70;;;;;;;-2.04;100.00;101481.14;105941;1254;65039;-75
2024/01/10 09:03:14;;;;;;;7.40;5.80;;;;;;;-2.03;100.00;101472.58;105896;1250;71732;-75
2024/01/10 09:05:42;;;;;;;8.00;6.20;;;;;;;-2.10;100.00;101467.75;105853;1250;60807;-74
2024/01/10 09:08:22;;;;;;;8.00;5.60;;;;;;;-2.12;100.00;101464.66;105884;1250;60486;-74
2024/01/10 09:10:50;;;;;;;8.90;7.00;;;;;;;-2.08;100.00;101466.21;105905;1254;73843;-74
2024/01/10 09:13:17;;;;;;;10.90;7.70;;;;;;;-2.05;100.00;101476.00;105843;1250;63788;-76
2024/01/10 09:15:44;;;;;;;8.30;6.70;;;;;;;-1.99;100.00;101471.58;105952;1250;72694;-75
2024/01/10 09:18:11;;;;;;;9.90;6.60;;;;;;;-1.99;100.00;101470.89;105815;1253;60557;-73
2024/01/10 09:20:39;;;;;;;10.30;6.00;;;;;;;-2.03;100.00;101472.06;105766;1250;60563;-74
2024/01/10 09:23:06;;;;;;;14.80;6.80;;;;;;;-2.05;100.00;101471.20;105869;1255;73777;-74
2024/01/10 09:25:34;;;;;;;9.00;6.70;;;;;;;-2.04;100.00;101474.81;105853;1256;63842;-76
2024/01/10 09:28:01;;;;;;;9.90;6.60;;;;;;;-2.05;100.00;101474.97;105916;1250;72618;-75
2024/01/10 09:30:28;;;;;;;11.50;7.30;;;;;;;-2.06;100.00;101474.61;105924;1250;60423;-75
2024/01/10 09:32:56;;;;;;;10.40;6.70;;;;;;;-2.09;100.00;101474.09;106026;1254;60361;-74
2024/01/10 09:35:23;;;;;;;10.60;7.60;;;;;;;-2.13;100.00;101461.21;106062;1255;73895;-75
2024/01/10 09:37:51;;;;;;;13.10;6.70;;;;;;;-2.12;100.00;101459.52;106155;1257;62360;-76
2024/01/10 09:40:20;;;;;;;9.60;6.20;;;;;;;-2.06;100.00;101457.50;106032;1250;71636;-75
2024/01/10 09:42:49;;;;;;;13.70;8.20;;;;;;;-2.00;100.00;101457.87;105863;1250;60477;-76
2024/01/10 09:45:17;;;;;;;8.30;6.30;;;;;;;-1.95;100.00;101455.14;105934;1257;60550;-75
2024/01/10 09:47:46;;;;;;;9.60;7.30;;;;;;;-1.92;100.00;101457.91;105941;1256;73750;-74
2024/01/10 09:50:14;;;;;;;11.30;7.20;;;;;;;-1.91;100.00;101451.22;106062;1254;63276;-74
2024/01/10 09:52:52;;;;;;;10.90;7.60;;;;;;;-1.88;100.00;101449.70;105914;1251;72990;-75
2024/01/10 09:55:21;;;;;;;10.20;7.40;;;;;;;-1.83;100.00;101451.27;105875;1253;60449;-75
2024/01/10 09:57:52;;;;;;;11.20;8.20;;;;;;;-1.80;100.00;101456.59;105995;1250;60467;-73
2024/01/10 10:00:19;;;;;;;9.90;7.50;;;;;;;-1.81;100.00;101462.75;105876;1254;71550;-75
2024/01/10 10:02:47;;;;;;;9.70;6.10;;;;;;;-1.82;100.00;101460.35;105766;1258;63499;-74
2024/01/10 10:05:16;;;;;;;8.10;6.20;;;;;;;-1.86;100.00;101461.52;105903;1250;72215;-74
2024/01/10 10:07:43;;;;;;;14.30;8.10;;;;;;;-1.90;100.00;101465.79;106012;1251;60614;-74
2024/01/10 14:09:59;;;;;;;17.20;10.40;;;;;;;-1.29;100.00;101575.47;102493;1290;602629;-75
2024/01/10 14:12:27;;;;;;;18.60;11.10;;;;;;;-1.28;100.00;101572.04;105044;1264;59362;-74
2024/01/10 14:14:56;;;;;;;17.00;10.80;;;;;;;-1.25;100.00;101575.98;105706;1266;59269;-75
2024/01/10 14:17:24;;;;;;;12.00;8.90;;;;;;;-1.21;100.00;101578.40;105114;1265;72335;-76
2024/01/10 14:19:52;;;;;;;17.40;8.90;;;;;;;-1.21;100.00;101576.52;105214;1264;65382;-75
2024/01/10 14:22:19;;;;;;;16.40;9.50;;;;;;;-1.23;100.00;101573.42;104813;1261;221926;-75
2024/01/10 14:24:59;;;;;;;16.80;10.00;;;;;;;-1.19;100.00;101578.92;105198;1266;60627;-75
2024/01/10 14:27:29;;;;;;;14.20;9.70;;;;;;;-1.20;100.00;101580.30;105312;1258;60016;-74
2024/01/10 14:29:56;;;;;;;14.00;8.30;;;;;;;-1.24;100.00;101577.88;105747;1257;73094;-76
2024/01/10 14:32:23;;;;;;;14.60;9.40;;;;;;;-1.29;100.00;101576.31;105517;1259;64809;-76
2024/01/10 14:34:50;;;;;;;15.50;9.30;;;;;;;-1.31;100.00;101574.60;105810;1257;73816;-75
2024/01/10 14:37:18;;;;;;;14.20;9.10;;;;;;;-1.31;100.00;101578.02;105989;1257;60167;-75
2024/01/10 14:39:45;;;;;;;14.60;9.70;;;;;;;-1.26;100.00;101569.13;105750;1253;61558;-74
2024/01/10 14:42:13;;;;;;;15.00;10.80;;;;;;;-1.27;100.00;101571.88;105836;1254;73093;-76
2024/01/10 14:44:40;;;;;;;16.40;10.80;;;;;;;-1.27;100.00;101569.63;107067;1254;64435;-73
2024/01/10 14:47:07;;;;;;;19.70;12.70;;;;;;;-1.24;100.00;101570.15;107184;1254;70608;-75
2024/01/10 14:49:38;;;;;;;14.70;10.10;;;;;;;-1.20;100.00;101566.58;108634;1256;58981;-74
2024/01/10 14:52:06;;;;;;;14.30;9.50;;;;;;;-1.18;100.00;101562.46;108663;1255;60332;-72
2024/01/10 14:54:34;;;;;;;13.40;10.50;;;;;;;-1.18;100.00;101563.66;106148;1255;72863;-75
2024/01/10 14:57:00;;;;;;;14.30;10.10;;;;;;;-1.15;100.00;101561.44;105523;1260;61994;-74
2024/01/10 14:59:29;;;;;;;9.60;8.30;;;;;;;-1.10;100.00;101557.52;105908;1258;73926;-75
2024/01/10 15:02:10;;;;;;;15.00;9.90;;;;;;;-1.12;100.00;101555.98;105731;1254;61028;-75
2024/01/10 15:04:39;;;;;;;12.10;8.10;;;;;;;-1.12;100.00;101564.37;105938;1254;61518;-75
2024/01/10 15:07:06;;;;;;;12.10;8.80;;;;;;;-1.12;100.00;101561.45;105642;1255;71323;-76